sensor_id;sensor_type;location;lat;lon;timestamp;temperature;humidity
40123;DHT22;25832;45.490;4.912;2022-10-19T00:01:32;14.40;99.90
40123;DHT22;25832;45.490;4.912;2022-10-19T00:04:01;14.40;99.90
40123;DHT22;25832;45.490;4.912;2022-10-19T00:06:30;14.30;99.90
40123;DHT22;25832;45.490;4.912;2022-10-19T00:11:25;14.30;99.90
40123;DHT22;25832;45.490;4.912;2022-10-19T00:13:53;14.30;99.90
40123;DHT22;25832;45.490;4.912;2022-10-19T00:16:20;14.30;99.90
40123;DHT22;25832;45.490;4.912;2022-10-19T00:18:46;14.20;99.90
40123;DHT22;25832;45.490;4.912;2022-10-19T00:21:14;14.20;99.90
40123;DHT22;25832;45.490;4.912;2022-10-19T00:23:40;14.10;99.90
40123;DHT22;25832;45.490;4.912;2022-10-19T00:26:06;14.00;99.90
40123;DHT22;25832;45.490;4.912;2022-10-19T00:28:32;14.00;99.90
40123;DHT22;25832;45.490;4.912;2022-10-19T00:31:06;13.90;99.90
40123;DHT22;25832;45.490;4.912;2022-10-19T00:33:32;13.90;99.90
40123;DHT22;25832;45.490;4.912;2022-10-19T00:35:58;13.80;99.90
40123;DHT22;25832;45.490;4.912;2022-10-19T00:38:23;13.80;99.90
40123;DHT22;25832;45.490;4.912;2022-10-19T00:40:49;13.80;99.90
40123;DHT22;25832;45.490;4.912;2022-10-19T00:43:21;13.70;99.90
40123;DHT22;25832;45.490;4.912;2022-10-19T00:45:48;13.70;99.90
40123;DHT22;25832;45.490;4.912;2022-10-19T00:48:18;13.70;99.90
40123;DHT22;25832;45.490;4.912;2022-10-19T00:50:46;13.60;99.90
40123;DHT22;25832;45.490;4.912;2022-10-19T00:53:13;13.60;99.90
40123;DHT22;25832;45.490;4.912;2022-10-19T00:55:40;13.50;99.90
40123;DHT22;25832;45.490;4.912;2022-10-19T00:58:06;13.50;99.90
40123;DHT22;25832;45.490;4.912;2022-10-19T01:00:32;13.50;99.90
40123;DHT22;25832;45.490;4.912;2022-10-19T01:02:59;13.50;99.90
40123;DHT22;25832;45.490;4.912;2022-10-19T01:05:25;13.40;99.90
40123;DHT22;25832;45.490;4.912;2022-10-19T01:07:52;13.40;99.90
40123;DHT22;25832;45.490;4.912;2022-10-19T01:10:20;13.30;99.90
40123;DHT22;25832;45.490;4.912;2022-10-19T01:13:19;13.30;99.90
40123;DHT22;25832;45.490;4.912;2022-10-19T01:16:05;13.30;99.90
40123;DHT22;25832;45.490;4.912;2022-10-19T01:18:35;13.30;99.90
40123;DHT22;25832;45.490;4.912;2022-10-19T01:21:27;13.30;99.90
40123;DHT22;25832;45.490;4.912;2022-10-19T01:32:46;13.50;99.90
40123;DHT22;25832;45.490;4.912;2022-10-19T01:38:17;13.50;99.90
40123;DHT22;25832;45.490;4.912;2022-10-19T01:40:53;13.40;99.90
40123;DHT22;25832;45.490;4.912;2022-10-19T01:43:36;13.40;99.90
40123;DHT22;25832;45.490;4.912;2022-10-19T01:46:17;13.30;99.90
40123;DHT22;25832;45.490;4.912;2022-10-19T01:48:51;13.20;99.90
40123;DHT22;25832;45.490;4.912;2022-10-19T01:51:26;13.30;99.90
40123;DHT22;25832;45.490;4.912;2022-10-19T01:53:56;13.20;99.90
40123;DHT22;25832;45.490;4.912;2022-10-19T01:56:24;13.20;99.90
40123;DHT22;25832;45.490;4.912;2022-10-19T01:58:53;13.20;99.90
40123;DHT22;25832;45.490;4.912;2022-10-19T02:01:23;13.20;99.90
40123;DHT22;25832;45.490;4.912;2022-10-19T02:03:50;13.10;99.90
40123;DHT22;25832;45.490;4.912;2022-10-19T02:06:17;13.20;99.90
40123;DHT22;25832;45.490;4.912;2022-10-19T02:08:47;13.10;99.90
40123;DHT22;25832;45.490;4.912;2022-10-19T02:11:14;13.10;99.90
40123;DHT22;25832;45.490;4.912;2022-10-19T02:13:40;13.10;99.90
40123;DHT22;25832;45.490;4.912;2022-10-19T02:16:13;13.00;99.90
40123;DHT22;25832;45.490;4.912;2022-10-19T02:18:42;13.00;99.90
40123;DHT22;25832;45.490;4.912;2022-10-19T02:21:08;12.90;99.90
40123;DHT22;25832;45.490;4.912;2022-10-19T02:23:35;12.90;99.90
40123;DHT22;25832;45.490;4.912;2022-10-19T02:26:01;12.90;99.90
40123;DHT22;25832;45.490;4.912;2022-10-19T02:28:27;12.90;99.90
40123;DHT22;25832;45.490;4.912;2022-10-19T02:30:54;12.90;99.90
40123;DHT22;25832;45.490;4.912;2022-10-19T02:33:20;12.90;99.90
40123;DHT22;25832;45.490;4.912;2022-10-19T02:35:46;12.90;99.90
40123;DHT22;25832;45.490;4.912;2022-10-19T02:38:16;12.90;99.90
40123;DHT22;25832;45.490;4.912;2022-10-19T02:40:50;13.00;99.90
40123;DHT22;25832;45.490;4.912;2022-10-19T02:43:19;13.10;99.90
40123;DHT22;25832;45.490;4.912;2022-10-19T02:46:04;13.10;99.90
40123;DHT22;25832;45.490;4.912;2022-10-19T02:48:32;13.00;99.90
40123;DHT22;25832;45.490;4.912;2022-10-19T02:50:59;13.00;99.90
40123;DHT22;25832;45.490;4.912;2022-10-19T02:53:24;12.90;99.90
40123;DHT22;25832;45.490;4.912;2022-10-19T02:55:51;13.00;99.90
40123;DHT22;25832;45.490;4.912;2022-10-19T02:58:16;13.00;99.90
40123;DHT22;25832;45.490;4.912;2022-10-19T03:00:42;13.00;99.90
40123;DHT22;25832;45.490;4.912;2022-10-19T03:03:08;13.00;99.90
40123;DHT22;25832;45.490;4.912;2022-10-19T03:05:34;13.00;99.90
40123;DHT22;25832;45.490;4.912;2022-10-19T03:08:00;12.90;99.90
40123;DHT22;25832;45.490;4.912;2022-10-19T03:10:25;12.90;99.90
40123;DHT22;25832;45.490;4.912;2022-10-19T03:12:51;12.80;99.90
40123;DHT22;25832;45.490;4.912;2022-10-19T03:15:17;12.70;99.90
40123;DHT22;25832;45.490;4.912;2022-10-19T03:17:43;12.70;99.90
40123;DHT22;25832;45.490;4.912;2022-10-19T03:20:09;12.70;99.90
40123;DHT22;25832;45.490;4.912;2022-10-19T03:22:35;12.60;99.90
40123;DHT22;25832;45.490;4.912;2022-10-19T03:25:01;12.60;99.90
40123;DHT22;25832;45.490;4.912;2022-10-19T03:27:27;12.60;99.90
40123;DHT22;25832;45.490;4.912;2022-10-19T03:29:52;12.50;99.90
40123;DHT22;25832;45.490;4.912;2022-10-19T03:32:18;12.50;99.90
40123;DHT22;25832;45.490;4.912;2022-10-19T03:34:44;12.40;99.90
40123;DHT22;25832;45.490;4.912;2022-10-19T03:37:09;12.40;99.90
40123;DHT22;25832;45.490;4.912;2022-10-19T03:39:37;12.40;99.90
40123;DHT22;25832;45.490;4.912;2022-10-19T03:42:03;12.40;99.90
40123;DHT22;25832;45.490;4.912;2022-10-19T03:44:28;12.30;99.90
40123;DHT22;25832;45.490;4.912;2022-10-19T03:46:54;12.30;99.90
40123;DHT22;25832;45.490;4.912;2022-10-19T03:49:20;12.30;99.90
40123;DHT22;25832;45.490;4.912;2022-10-19T03:51:46;12.30;99.90
40123;DHT22;25832;45.490;4.912;2022-10-19T03:54:13;12.30;99.90
40123;DHT22;25832;45.490;4.912;2022-10-19T03:56:39;12.30;99.90
40123;DHT22;25832;45.490;4.912;2022-10-19T03:59:06;12.30;99.90
40123;DHT22;25832;45.490;4.912;2022-10-19T04:01:34;12.40;99.90
40123;DHT22;25832;45.490;4.912;2022-10-19T04:04:04;12.40;99.90
40123;DHT22;25832;45.490;4.912;2022-10-19T04:06:33;12.40;99.90
40123;DHT22;25832;45.490;4.912;2022-10-19T04:08:59;12.50;99.90
40123;DHT22;25832;45.490;4.912;2022-10-19T04:11:28;12.50;99.90
40123;DHT22;25832;45.490;4.912;2022-10-19T04:13:56;12.60;99.90
40123;DHT22;25832;45.490;4.912;2022-10-19T04:16:23;12.60;99.90
40123;DHT22;25832;45.490;4.912;2022-10-19T04:18:50;12.60;99.90
40123;DHT22;25832;45.490;4.912;2022-10-19T04:21:37;12.60;99.90
40123;DHT22;25832;45.490;4.912;2022-10-19T04:24:06;12.60;99.90
40123;DHT22;25832;45.490;4.912;2022-10-19T04:26:33;12.60;99.90
40123;DHT22;25832;45.490;4.912;2022-10-19T04:29:02;12.60;99.90
40123;DHT22;25832;45.490;4.912;2022-10-19T04:31:28;12.60;99.90
40123;DHT22;25832;45.490;4.912;2022-10-19T04:33:54;12.50;99.90
40123;DHT22;25832;45.490;4.912;2022-10-19T04:36:20;12.50;99.90
40123;DHT22;25832;45.490;4.912;2022-10-19T04:38:46;12.50;99.90
40123;DHT22;25832;45.490;4.912;2022-10-19T04:41:14;12.50;99.90
40123;DHT22;25832;45.490;4.912;2022-10-19T04:43:41;12.50;99.90
40123;DHT22;25832;45.490;4.912;2022-10-19T04:46:09;12.40;99.90
40123;DHT22;25832;45.490;4.912;2022-10-19T04:48:36;12.30;99.90
40123;DHT22;25832;45.490;4.912;2022-10-19T04:51:03;12.30;99.90
40123;DHT22;25832;45.490;4.912;2022-10-19T04:53:29;12.30;99.90
40123;DHT22;25832;45.490;4.912;2022-10-19T04:55:55;12.40;99.90
40123;DHT22;25832;45.490;4.912;2022-10-19T04:58:21;12.40;99.90
40123;DHT22;25832;45.490;4.912;2022-10-19T05:00:46;12.40;99.90
40123;DHT22;25832;45.490;4.912;2022-10-19T05:03:12;12.50;99.90
40123;DHT22;25832;45.490;4.912;2022-10-19T05:05:38;12.40;99.90
40123;DHT22;25832;45.490;4.912;2022-10-19T05:08:04;12.50;99.90
40123;DHT22;25832;45.490;4.912;2022-10-19T05:10:30;12.50;99.90
40123;DHT22;25832;45.490;4.912;2022-10-19T05:12:55;12.60;99.90
40123;DHT22;25832;45.490;4.912;2022-10-19T05:15:21;12.70;99.90
40123;DHT22;25832;45.490;4.912;2022-10-19T05:17:47;12.80;99.90
40123;DHT22;25832;45.490;4.912;2022-10-19T05:20:13;12.80;99.90
40123;DHT22;25832;45.490;4.912;2022-10-19T05:22:38;12.80;99.90
40123;DHT22;25832;45.490;4.912;2022-10-19T05:25:05;12.90;99.90
40123;DHT22;25832;45.490;4.912;2022-10-19T05:27:32;13.00;99.90
40123;DHT22;25832;45.490;4.912;2022-10-19T05:29:58;13.00;99.90
40123;DHT22;25832;45.490;4.912;2022-10-19T05:32:23;13.10;99.90
40123;DHT22;25832;45.490;4.912;2022-10-19T05:34:49;13.20;99.90
40123;DHT22;25832;45.490;4.912;2022-10-19T05:37:15;13.20;99.90
40123;DHT22;25832;45.490;4.912;2022-10-19T05:39:41;13.20;99.90
40123;DHT22;25832;45.490;4.912;2022-10-19T05:42:07;13.30;99.90
40123;DHT22;25832;45.490;4.912;2022-10-19T05:44:33;13.30;99.90
40123;DHT22;25832;45.490;4.912;2022-10-19T05:46:59;13.30;99.90
40123;DHT22;25832;45.490;4.912;2022-10-19T05:49:25;13.30;99.90
40123;DHT22;25832;45.490;4.912;2022-10-19T05:51:51;13.40;99.90
40123;DHT22;25832;45.490;4.912;2022-10-19T05:54:17;13.40;99.90
40123;DHT22;25832;45.490;4.912;2022-10-19T05:56:43;13.40;99.90
40123;DHT22;25832;45.490;4.912;2022-10-19T05:59:13;13.50;99.90
40123;DHT22;25832;45.490;4.912;2022-10-19T06:01:38;13.50;99.90
40123;DHT22;25832;45.490;4.912;2022-10-19T06:04:04;13.60;99.90
40123;DHT22;25832;45.490;4.912;2022-10-19T06:06:31;13.60;99.90
40123;DHT22;25832;45.490;4.912;2022-10-19T06:08:58;13.60;99.90
40123;DHT22;25832;45.490;4.912;2022-10-19T06:11:28;13.50;99.90
40123;DHT22;25832;45.490;4.912;2022-10-19T06:13:54;13.50;99.90
40123;DHT22;25832;45.490;4.912;2022-10-19T06:16:21;13.60;99.90
40123;DHT22;25832;45.490;4.912;2022-10-19T06:18:49;13.60;99.90
40123;DHT22;25832;45.490;4.912;2022-10-19T06:21:17;13.70;99.90
40123;DHT22;25832;45.490;4.912;2022-10-19T06:23:43;13.80;99.90
40123;DHT22;25832;45.490;4.912;2022-10-19T06:26:13;14.00;99.90
40123;DHT22;25832;45.490;4.912;2022-10-19T06:28:40;14.20;99.90
40123;DHT22;25832;45.490;4.912;2022-10-19T06:31:07;14.30;99.90
40123;DHT22;25832;45.490;4.912;2022-10-19T06:33:33;14.40;99.90
40123;DHT22;25832;45.490;4.912;2022-10-19T06:36:19;14.50;99.90
40123;DHT22;25832;45.490;4.912;2022-10-19T06:38:46;14.70;99.90
40123;DHT22;25832;45.490;4.912;2022-10-19T06:41:12;14.80;99.90
40123;DHT22;25832;45.490;4.912;2022-10-19T06:43:38;15.00;99.90
40123;DHT22;25832;45.490;4.912;2022-10-19T06:46:10;15.10;99.90
40123;DHT22;25832;45.490;4.912;2022-10-19T06:48:36;15.20;99.90
40123;DHT22;25832;45.490;4.912;2022-10-19T06:51:04;15.30;99.90
40123;DHT22;25832;45.490;4.912;2022-10-19T06:53:30;15.40;99.90
40123;DHT22;25832;45.490;4.912;2022-10-19T06:55:59;15.40;99.90
40123;DHT22;25832;45.490;4.912;2022-10-19T06:58:26;15.40;99.90
40123;DHT22;25832;45.490;4.912;2022-10-19T07:00:58;15.30;99.90
40123;DHT22;25832;45.490;4.912;2022-10-19T07:03:25;15.20;99.90
40123;DHT22;25832;45.490;4.912;2022-10-19T07:05:55;15.10;99.90
40123;DHT22;25832;45.490;4.912;2022-10-19T07:08:21;15.10;99.90
40123;DHT22;25832;45.490;4.912;2022-10-19T07:10:51;15.10;99.90
40123;DHT22;25832;45.490;4.912;2022-10-19T07:13:17;15.00;99.90
40123;DHT22;25832;45.490;4.912;2022-10-19T07:15:43;15.00;99.90
40123;DHT22;25832;45.490;4.912;2022-10-19T07:18:09;14.90;99.90
40123;DHT22;25832;45.490;4.912;2022-10-19T07:20:34;14.90;99.90
40123;DHT22;25832;45.490;4.912;2022-10-19T07:23:00;14.90;99.90
40123;DHT22;25832;45.490;4.912;2022-10-19T07:25:27;15.00;99.90
40123;DHT22;25832;45.490;4.912;2022-10-19T07:27:52;15.10;99.90
40123;DHT22;25832;45.490;4.912;2022-10-19T07:30:18;15.30;99.90
40123;DHT22;25832;45.490;4.912;2022-10-19T07:32:45;15.50;99.90
40123;DHT22;25832;45.490;4.912;2022-10-19T07:35:10;15.60;99.90
40123;DHT22;25832;45.490;4.912;2022-10-19T07:37:36;15.70;99.90
40123;DHT22;25832;45.490;4.912;2022-10-19T07:40:02;15.80;99.90
40123;DHT22;25832;45.490;4.912;2022-10-19T07:42:28;15.90;99.90
40123;DHT22;25832;45.490;4.912;2022-10-19T07:44:56;16.00;99.90
40123;DHT22;25832;45.490;4.912;2022-10-19T07:47:22;16.10;99.90
40123;DHT22;25832;45.490;4.912;2022-10-19T07:49:48;16.20;99.90
40123;DHT22;25832;45.490;4.912;2022-10-19T07:52:14;16.30;99.90
40123;DHT22;25832;45.490;4.912;2022-10-19T07:54:39;16.40;99.90
40123;DHT22;25832;45.490;4.912;2022-10-19T07:57:05;16.50;99.90
40123;DHT22;25832;45.490;4.912;2022-10-19T07:59:31;16.60;99.90
40123;DHT22;25832;45.490;4.912;2022-10-19T08:01:56;16.70;99.90
40123;DHT22;25832;45.490;4.912;2022-10-19T08:04:23;16.70;99.90
40123;DHT22;25832;45.490;4.912;2022-10-19T08:06:49;16.70;99.90
40123;DHT22;25832;45.490;4.912;2022-10-19T08:09:14;16.80;99.90
40123;DHT22;25832;45.490;4.912;2022-10-19T08:11:40;16.80;99.90
40123;DHT22;25832;45.490;4.912;2022-10-19T08:14:06;16.90;99.90
40123;DHT22;25832;45.490;4.912;2022-10-19T08:16:37;17.00;99.90
40123;DHT22;25832;45.490;4.912;2022-10-19T08:19:07;17.10;99.90
40123;DHT22;25832;45.490;4.912;2022-10-19T08:21:34;17.10;99.90
40123;DHT22;25832;45.490;4.912;2022-10-19T08:24:00;17.20;99.90
40123;DHT22;25832;45.490;4.912;2022-10-19T08:26:30;17.30;99.90
40123;DHT22;25832;45.490;4.912;2022-10-19T08:29:05;17.40;99.90
40123;DHT22;25832;45.490;4.912;2022-10-19T08:31:31;17.50;99.90
40123;DHT22;25832;45.490;4.912;2022-10-19T08:33:57;17.60;99.90
40123;DHT22;25832;45.490;4.912;2022-10-19T08:36:23;17.70;99.90
40123;DHT22;25832;45.490;4.912;2022-10-19T08:38:51;17.70;99.90
40123;DHT22;25832;45.490;4.912;2022-10-19T08:41:32;17.80;99.90
40123;DHT22;25832;45.490;4.912;2022-10-19T08:49:17;17.90;99.90
40123;DHT22;25832;45.490;4.912;2022-10-19T08:51:51;17.90;99.90
40123;DHT22;25832;45.490;4.912;2022-10-19T08:54:19;17.90;99.90
40123;DHT22;25832;45.490;4.912;2022-10-19T08:57:07;18.00;99.90
40123;DHT22;25832;45.490;4.912;2022-10-19T09:02:22;18.20;99.90
40123;DHT22;25832;45.490;4.912;2022-10-19T09:05:02;18.20;99.90
40123;DHT22;25832;45.490;4.912;2022-10-19T09:07:36;18.20;99.90
40123;DHT22;25832;45.490;4.912;2022-10-19T09:12:59;18.40;99.90
40123;DHT22;25832;45.490;4.912;2022-10-19T09:17:57;18.60;99.90
40123;DHT22;25832;45.490;4.912;2022-10-19T09:20:34;18.70;99.90
40123;DHT22;25832;45.490;4.912;2022-10-19T09:23:05;18.80;99.90
40123;DHT22;25832;45.490;4.912;2022-10-19T09:25:36;18.90;99.90
40123;DHT22;25832;45.490;4.912;2022-10-19T09:28:32;19.00;99.90
40123;DHT22;25832;45.490;4.912;2022-10-19T09:31:00;19.10;99.90
40123;DHT22;25832;45.490;4.912;2022-10-19T09:33:34;19.20;99.90
40123;DHT22;25832;45.490;4.912;2022-10-19T09:36:04;19.30;99.90
40123;DHT22;25832;45.490;4.912;2022-10-19T09:38:30;19.30;99.90
40123;DHT22;25832;45.490;4.912;2022-10-19T09:41:19;19.40;99.90
40123;DHT22;25832;45.490;4.912;2022-10-19T09:43:54;19.40;99.90
40123;DHT22;25832;45.490;4.912;2022-10-19T09:49:41;19.50;99.90
40123;DHT22;25832;45.490;4.912;2022-10-19T09:54:57;19.60;99.90
40123;DHT22;25832;45.490;4.912;2022-10-19T09:57:24;19.60;99.90
40123;DHT22;25832;45.490;4.912;2022-10-19T09:59:50;19.70;99.90
40123;DHT22;25832;45.490;4.912;2022-10-19T10:02:20;19.80;99.90
40123;DHT22;25832;45.490;4.912;2022-10-19T10:04:54;20.00;99.90
40123;DHT22;25832;45.490;4.912;2022-10-19T10:07:24;20.10;99.90
40123;DHT22;25832;45.490;4.912;2022-10-19T10:09:51;20.20;99.90
40123;DHT22;25832;45.490;4.912;2022-10-19T10:12:17;20.30;99.90
40123;DHT22;25832;45.490;4.912;2022-10-19T10:14:43;20.30;99.90
40123;DHT22;25832;45.490;4.912;2022-10-19T10:17:19;20.30;99.90
40123;DHT22;25832;45.490;4.912;2022-10-19T10:22:26;20.50;99.90
40123;DHT22;25832;45.490;4.912;2022-10-19T10:24:54;20.50;99.90
40123;DHT22;25832;45.490;4.912;2022-10-19T10:27:35;20.50;99.90
40123;DHT22;25832;45.490;4.912;2022-10-19T10:30:16;20.60;99.90
40123;DHT22;25832;45.490;4.912;2022-10-19T10:32:50;20.70;99.90
40123;DHT22;25832;45.490;4.912;2022-10-19T10:35:20;20.80;99.90
40123;DHT22;25832;45.490;4.912;2022-10-19T10:37:47;20.80;99.90
40123;DHT22;25832;45.490;4.912;2022-10-19T10:40:27;20.70;99.90
40123;DHT22;25832;45.490;4.912;2022-10-19T10:42:55;20.80;99.90
40123;DHT22;25832;45.490;4.912;2022-10-19T10:48:22;20.90;99.90
40123;DHT22;25832;45.490;4.912;2022-10-19T10:50:51;21.00;99.90
40123;DHT22;25832;45.490;4.912;2022-10-19T10:53:39;21.00;99.90
40123;DHT22;25832;45.490;4.912;2022-10-19T10:56:27;21.10;99.90
40123;DHT22;25832;45.490;4.912;2022-10-19T10:59:05;21.10;99.90
40123;DHT22;25832;45.490;4.912;2022-10-19T11:01:43;21.20;99.90
40123;DHT22;25832;45.490;4.912;2022-10-19T11:04:18;21.40;99.90
40123;DHT22;25832;45.490;4.912;2022-10-19T11:06:52;21.50;99.90
40123;DHT22;25832;45.490;4.912;2022-10-19T11:09:38;21.70;99.90
40123;DHT22;25832;45.490;4.912;2022-10-19T11:12:11;21.80;99.90
40123;DHT22;25832;45.490;4.912;2022-10-19T11:14:45;21.70;99.90
40123;DHT22;25832;45.490;4.912;2022-10-19T11:17:22;21.70;99.90
40123;DHT22;25832;45.490;4.912;2022-10-19T11:19:49;21.70;99.90
40123;DHT22;25832;45.490;4.912;2022-10-19T11:22:47;21.70;99.90
40123;DHT22;25832;45.490;4.912;2022-10-19T11:25:23;21.70;99.90
40123;DHT22;25832;45.490;4.912;2022-10-19T11:28:22;21.80;99.90
40123;DHT22;25832;45.490;4.912;2022-10-19T11:30:56;21.80;99.90
40123;DHT22;25832;45.490;4.912;2022-10-19T11:44:50;22.20;99.90
40123;DHT22;25832;45.490;4.912;2022-10-19T11:47:39;22.30;99.90
40123;DHT22;25832;45.490;4.912;2022-10-19T11:55:53;22.30;99.90
40123;DHT22;25832;45.490;4.912;2022-10-19T11:59:13;22.30;99.90
40123;DHT22;25832;45.490;4.912;2022-10-19T12:01:31;22.30;99.90
40123;DHT22;25832;45.490;4.912;2022-10-19T12:12:49;22.50;99.80
40123;DHT22;25832;45.490;4.912;2022-10-19T12:15:22;22.60;99.90
40123;DHT22;25832;45.490;4.912;2022-10-19T12:17:51;22.60;99.60
40123;DHT22;25832;45.490;4.912;2022-10-19T12:20:35;22.50;99.40
40123;DHT22;25832;45.490;4.912;2022-10-19T12:23:32;22.40;99.40
40123;DHT22;25832;45.490;4.912;2022-10-19T12:26:00;22.30;99.50
40123;DHT22;25832;45.490;4.912;2022-10-19T12:28:28;22.10;99.60
40123;DHT22;25832;45.490;4.912;2022-10-19T12:30:55;22.00;99.90
40123;DHT22;25832;45.490;4.912;2022-10-19T12:47:20;21.90;99.90
40123;DHT22;25832;45.490;4.912;2022-10-19T12:49:54;22.10;99.90
40123;DHT22;25832;45.490;4.912;2022-10-19T12:52:42;22.20;99.90
40123;DHT22;25832;45.490;4.912;2022-10-19T12:55:24;22.10;99.40
40123;DHT22;25832;45.490;4.912;2022-10-19T12:58:13;22.20;99.90
40123;DHT22;25832;45.490;4.912;2022-10-19T13:00:57;22.20;99.70
40123;DHT22;25832;45.490;4.912;2022-10-19T13:03:27;22.30;99.50
40123;DHT22;25832;45.490;4.912;2022-10-19T13:05:56;22.30;99.60
40123;DHT22;25832;45.490;4.912;2022-10-19T13:08:34;22.40;99.10
40123;DHT22;25832;45.490;4.912;2022-10-19T13:11:07;22.40;99.10
40123;DHT22;25832;45.490;4.912;2022-10-19T13:14:04;22.40;99.30
40123;DHT22;25832;45.490;4.912;2022-10-19T13:16:32;22.40;99.60
40123;DHT22;25832;45.490;4.912;2022-10-19T13:19:24;22.40;99.10
40123;DHT22;25832;45.490;4.912;2022-10-19T13:35:32;22.10;99.90
40123;DHT22;25832;45.490;4.912;2022-10-19T13:38:22;22.20;99.80
40123;DHT22;25832;45.490;4.912;2022-10-19T13:43:27;22.20;99.50
40123;DHT22;25832;45.490;4.912;2022-10-19T13:48:37;22.30;99.60
40123;DHT22;25832;45.490;4.912;2022-10-19T13:57:05;22.50;99.20
40123;DHT22;25832;45.490;4.912;2022-10-19T14:08:16;22.70;98.80
40123;DHT22;25832;45.490;4.912;2022-10-19T14:10:51;22.80;98.10
40123;DHT22;25832;45.490;4.912;2022-10-19T14:13:22;22.80;98.10
40123;DHT22;25832;45.490;4.912;2022-10-19T14:15:53;22.80;98.10
40123;DHT22;25832;45.490;4.912;2022-10-19T14:18:33;22.90;98.10
40123;DHT22;25832;45.490;4.912;2022-10-19T14:21:02;22.90;97.90
40123;DHT22;25832;45.490;4.912;2022-10-19T14:23:33;23.00;97.80
40123;DHT22;25832;45.490;4.912;2022-10-19T14:28:29;22.90;97.80
40123;DHT22;25832;45.490;4.912;2022-10-19T14:31:07;22.90;98.00
40123;DHT22;25832;45.490;4.912;2022-10-19T14:33:45;22.90;97.90
40123;DHT22;25832;45.490;4.912;2022-10-19T14:36:18;22.90;97.90
40123;DHT22;25832;45.490;4.912;2022-10-19T14:38:45;22.90;98.50
40123;DHT22;25832;45.490;4.912;2022-10-19T14:43:53;22.80;98.10
40123;DHT22;25832;45.490;4.912;2022-10-19T14:46:19;22.80;98.00
40123;DHT22;25832;45.490;4.912;2022-10-19T14:48:47;22.80;98.00
40123;DHT22;25832;45.490;4.912;2022-10-19T14:54:33;22.70;98.20
40123;DHT22;25832;45.490;4.912;2022-10-19T14:57:05;22.70;98.30
40123;DHT22;25832;45.490;4.912;2022-10-19T14:59:47;22.70;98.30
40123;DHT22;25832;45.490;4.912;2022-10-19T15:02:21;22.70;98.20
40123;DHT22;25832;45.490;4.912;2022-10-19T15:04:48;22.50;98.40
40123;DHT22;25832;45.490;4.912;2022-10-19T15:07:24;22.50;98.50
40123;DHT22;25832;45.490;4.912;2022-10-19T15:09:54;22.40;98.60
40123;DHT22;25832;45.490;4.912;2022-10-19T15:12:28;22.40;98.90
40123;DHT22;25832;45.490;4.912;2022-10-19T15:14:55;22.40;98.90
40123;DHT22;25832;45.490;4.912;2022-10-19T15:17:27;22.30;98.80
40123;DHT22;25832;45.490;4.912;2022-10-19T15:19:54;22.30;99.00
40123;DHT22;25832;45.490;4.912;2022-10-19T15:22:44;22.20;98.90
40123;DHT22;25832;45.490;4.912;2022-10-19T15:27:35;22.10;98.90
40123;DHT22;25832;45.490;4.912;2022-10-19T15:30:05;22.00;99.20
40123;DHT22;25832;45.490;4.912;2022-10-19T15:32:35;22.00;99.30
40123;DHT22;25832;45.490;4.912;2022-10-19T15:35:14;22.00;99.50
40123;DHT22;25832;45.490;4.912;2022-10-19T15:37:43;21.90;99.70
40123;DHT22;25832;45.490;4.912;2022-10-19T15:40:20;21.90;99.80
40123;DHT22;25832;45.490;4.912;2022-10-19T15:42:47;21.80;99.90
40123;DHT22;25832;45.490;4.912;2022-10-19T15:45:45;21.70;99.90
40123;DHT22;25832;45.490;4.912;2022-10-19T15:48:24;21.60;99.90
40123;DHT22;25832;45.490;4.912;2022-10-19T15:50:52;21.60;99.90
40123;DHT22;25832;45.490;4.912;2022-10-19T15:53:19;21.50;99.90
40123;DHT22;25832;45.490;4.912;2022-10-19T15:55:45;21.40;99.90
40123;DHT22;25832;45.490;4.912;2022-10-19T15:58:12;21.40;99.90
40123;DHT22;25832;45.490;4.912;2022-10-19T16:00:38;21.30;99.90
40123;DHT22;25832;45.490;4.912;2022-10-19T16:03:04;21.20;99.90
40123;DHT22;25832;45.490;4.912;2022-10-19T16:05:30;21.20;99.90
40123;DHT22;25832;45.490;4.912;2022-10-19T16:07:56;21.10;99.90
40123;DHT22;25832;45.490;4.912;2022-10-19T16:10:24;21.10;99.90
40123;DHT22;25832;45.490;4.912;2022-10-19T16:12:50;21.00;99.90
40123;DHT22;25832;45.490;4.912;2022-10-19T16:15:19;21.00;99.90
40123;DHT22;25832;45.490;4.912;2022-10-19T16:17:54;20.90;99.90
40123;DHT22;25832;45.490;4.912;2022-10-19T16:20:20;20.90;99.90
40123;DHT22;25832;45.490;4.912;2022-10-19T16:22:47;20.80;99.90
40123;DHT22;25832;45.490;4.912;2022-10-19T16:25:13;20.70;99.90
40123;DHT22;25832;45.490;4.912;2022-10-19T16:27:39;20.60;99.90
40123;DHT22;25832;45.490;4.912;2022-10-19T16:30:05;20.60;99.90
40123;DHT22;25832;45.490;4.912;2022-10-19T16:32:31;20.60;99.90
40123;DHT22;25832;45.490;4.912;2022-10-19T16:34:57;20.50;99.90
40123;DHT22;25832;45.490;4.912;2022-10-19T16:37:22;20.50;99.90
40123;DHT22;25832;45.490;4.912;2022-10-19T16:39:48;20.40;99.90
40123;DHT22;25832;45.490;4.912;2022-10-19T16:42:14;20.40;99.90
40123;DHT22;25832;45.490;4.912;2022-10-19T16:44:39;20.30;99.90
40123;DHT22;25832;45.490;4.912;2022-10-19T16:47:05;20.20;99.90
40123;DHT22;25832;45.490;4.912;2022-10-19T16:49:31;20.20;99.90
40123;DHT22;25832;45.490;4.912;2022-10-19T16:51:57;20.20;99.90
40123;DHT22;25832;45.490;4.912;2022-10-19T16:54:22;20.10;99.90
40123;DHT22;25832;45.490;4.912;2022-10-19T16:56:48;20.20;99.90
40123;DHT22;25832;45.490;4.912;2022-10-19T16:59:16;20.20;99.90
40123;DHT22;25832;45.490;4.912;2022-10-19T17:01:43;20.10;99.90
40123;DHT22;25832;45.490;4.912;2022-10-19T17:04:12;20.10;99.90
40123;DHT22;25832;45.490;4.912;2022-10-19T17:06:39;20.10;99.90
40123;DHT22;25832;45.490;4.912;2022-10-19T17:09:05;20.00;99.90
40123;DHT22;25832;45.490;4.912;2022-10-19T17:11:36;19.90;99.90
40123;DHT22;25832;45.490;4.912;2022-10-19T17:14:06;19.90;99.90
40123;DHT22;25832;45.490;4.912;2022-10-19T17:16:34;19.90;99.90
40123;DHT22;25832;45.490;4.912;2022-10-19T17:19:01;19.90;99.90
40123;DHT22;25832;45.490;4.912;2022-10-19T17:21:30;19.90;99.90
40123;DHT22;25832;45.490;4.912;2022-10-19T17:23:58;19.80;99.90
40123;DHT22;25832;45.490;4.912;2022-10-19T17:26:30;19.80;99.90
40123;DHT22;25832;45.490;4.912;2022-10-19T17:28:58;19.80;99.90
40123;DHT22;25832;45.490;4.912;2022-10-19T17:31:24;19.70;99.90
40123;DHT22;25832;45.490;4.912;2022-10-19T17:33:50;19.70;99.90
40123;DHT22;25832;45.490;4.912;2022-10-19T17:36:21;19.60;99.90
40123;DHT22;25832;45.490;4.912;2022-10-19T17:38:51;19.60;99.90
40123;DHT22;25832;45.490;4.912;2022-10-19T17:41:18;19.60;99.90
40123;DHT22;25832;45.490;4.912;2022-10-19T17:43:46;19.60;99.90
40123;DHT22;25832;45.490;4.912;2022-10-19T17:46:15;19.50;99.90
40123;DHT22;25832;45.490;4.912;2022-10-19T17:48:42;19.50;99.90
40123;DHT22;25832;45.490;4.912;2022-10-19T17:51:12;19.50;99.90